Time;durP1;ratioP1;P1;durP2;ratioP2;P2;SDS_P1;SDS_P2;PMS_P1;PMS_P2;Temp;Humidity;BMP_temperature;BMP_pressure;BME280_temperature;BME280_humidity;BME280_pressure;Samples;Min_cycle;Max_cycle;Signal;HPM_P1;HPM_P2
2023/01/05 00:01:50;;;;;;;;;41.50;37.00;;;;;12.37;48.35;100104.50;5014475;28;8852;-79
2023/01/05 00:04:19;;;;;;;;;48.50;41.00;;;;;12.38;48.29;100093.16;5017555;28;8871;-78
2023/01/05 00:06:49;;;;;;;;;67.50;55.00;;;;;12.41;48.40;100094.03;5050457;28;9724;-78
2023/01/05 00:09:19;;;;;;;;;79.67;63.67;;;;;12.39;49.13;100095.78;5034075;28;8840;-80
2023/01/05 00:23:09;;;;;;;;;57.75;47.25;;;;;12.19;48.44;100066.13;4967245;28;8864;-79
2023/01/05 00:25:40;;;;;;;;;77.75;60.50;;;;;12.16;48.29;100069.63;4967185;28;8861;-78
2023/01/05 00:28:09;;;;;;;;;67.50;55.25;;;;;12.19;48.48;100072.25;4972983;28;8912;-79
2023/01/05 00:30:41;;;;;;;;;73.25;56.50;;;;;12.21;48.14;100067.00;5026134;28;8910;-78
2023/01/05 00:33:11;;;;;;;;;48.50;42.00;;;;;12.09;48.09;100067.84;4993251;28;8872;-78
2023/01/05 00:35:40;;;;;;;;;37.25;34.75;;;;;11.87;47.47;100062.56;5025843;28;8857;-78
2023/01/05 00:38:10;;;;;;;;;41.00;37.25;;;;;11.74;47.40;100059.88;5026121;28;8965;-77
2023/01/05 00:40:40;;;;;;;;;37.00;35.75;;;;;11.69;47.46;100047.69;4993706;28;8966;-79
2023/01/05 00:43:08;;;;;;;;;41.50;36.50;;;;;11.77;47.56;100044.22;5032758;28;8853;-80
2023/01/05 00:45:37;;;;;;;;;55.50;46.50;;;;;11.46;48.49;100047.63;5046380;28;8958;-78
2023/01/05 00:48:06;;;;;;;;;53.25;44.75;;;;;11.45;48.44;100043.25;5013358;28;9622;-78
2023/01/05 00:50:35;;;;;;;;;42.75;39.00;;;;;11.47;48.62;100044.16;5045777;28;8838;-79
2023/01/05 00:53:04;;;;;;;;;25.20;23.40;;;;;11.56;48.47;100045.03;5013072;28;8846;-78
2023/01/05 00:55:34;;;;;;;;;20.20;18.80;;;;;11.48;48.77;100050.25;5024112;28;8866;-78
2023/01/05 00:58:02;;;;;;;;;23.00;22.00;;;;;11.44;48.28;100051.97;5080373;28;8848;-77
2023/01/05 01:00:32;;;;;;;;;23.20;22.00;;;;;11.70;48.05;100043.31;5069125;28;8859;-79
2023/01/05 01:03:01;;;;;;;;;27.60;25.80;;;;;11.81;47.54;100040.75;5052915;28;8883;-78
2023/01/05 01:05:31;;;;;;;;;31.00;29.00;;;;;11.90;47.52;100048.66;5053130;28;8851;-77
2023/01/05 01:07:59;;;;;;;;;33.75;32.50;;;;;11.92;47.30;100048.66;5052662;28;8852;-77
2023/01/05 01:10:28;;;;;;;;;26.25;25.75;;;;;11.86;48.40;100044.25;5052997;28;8933;-78
2023/01/05 01:12:59;;;;;;;;;36.50;33.50;;;;;11.84;48.41;100054.69;5019166;28;8894;-77
2023/01/05 01:15:27;;;;;;;;;33.25;27.50;;;;;11.90;48.47;100059.09;5052878;28;8948;-78
2023/01/05 01:17:56;;;;;;;;;43.75;36.50;;;;;11.71;48.26;100059.00;5052814;28;8855;-77
2023/01/05 01:20:26;;;;;;;;;38.50;34.00;;;;;11.63;49.40;100058.13;5069739;28;8843;-78
2023/01/05 01:22:59;;;;;;;;;51.50;40.75;;;;;11.90;49.00;100053.88;5070466;28;8847;-77
2023/01/05 01:25:28;;;;;;;;;48.00;40.25;;;;;12.02;48.20;100045.19;5072647;28;8863;-78
2023/01/05 01:27:56;;;;;;;;;45.00;40.50;;;;;12.13;48.57;100035.59;5071714;28;8948;-77
2023/01/05 01:30:27;;;;;;;;;43.00;40.50;;;;;12.19;48.63;100038.25;5040562;28;8835;-78
2023/01/05 01:32:55;;;;;;;;;47.75;39.00;;;;;12.22;47.78;100035.63;5128705;27;8873;-79
2023/01/05 01:35:24;;;;;;;;;42.25;38.75;;;;;12.23;47.49;100036.47;5100401;27;8923;-77
2023/01/05 01:37:53;;;;;;;;;46.25;39.00;;;;;12.21;47.25;100040.84;5119432;27;8858;-77
2023/01/05 01:40:22;;;;;;;;;44.25;37.00;;;;;12.21;48.00;100026.06;5117859;27;8942;-78
2023/01/05 01:42:51;;;;;;;;;52.00;43.50;;;;;12.25;47.53;100021.69;5045666;28;8853;-76
2023/01/05 01:45:22;;;;;;;;;37.75;37.00;;;;;12.26;47.93;100002.50;5106799;28;8825;-78
2023/01/05 01:47:57;;;;;;;;;43.50;40.75;;;;;12.32;47.43;99989.41;5089921;28;8961;-78
2023/01/05 01:50:31;;;;;;;;;48.75;41.25;;;;;12.29;47.46;99987.69;5107157;28;8845;-77
2023/01/05 01:53:03;;;;;;;;;47.75;44.00;;;;;12.28;47.30;99985.06;5040656;28;8871;-77
2023/01/05 01:55:33;;;;;;;;;52.50;43.25;;;;;12.22;48.12;99985.09;5106667;28;8921;-77
2023/01/05 01:58:06;;;;;;;;;54.75;44.25;;;;;12.22;48.03;99975.47;5108939;28;9006;-79
2023/01/05 02:00:34;;;;;;;;;50.25;44.00;;;;;12.18;48.35;99967.66;5092103;28;8937;-78
2023/01/05 02:03:05;;;;;;;;;47.75;42.00;;;;;12.19;47.96;99966.75;5092233;28;8857;-80
2023/01/05 02:05:36;;;;;;;;;46.25;41.25;;;;;12.15;48.08;99967.66;5093688;28;8825;-77
2023/01/05 02:08:12;;;;;;;;;56.25;45.50;;;;;12.20;48.75;99964.16;5096148;28;8937;-81
2023/01/05 02:10:57;;;;;;;;;54.25;43.25;;;;;12.15;48.09;99968.50;5128603;27;8861;-78
2023/01/05 02:13:43;;;;;;;;;53.00;43.75;;;;;12.12;48.28;99958.06;5112104;28;8861;-80
2023/01/05 02:16:19;;;;;;;;;54.75;44.25;;;;;12.04;48.10;99941.50;5110126;28;8852;-77
2023/01/05 02:19:23;;;;;;;;;54.00;44.75;;;;;12.01;48.98;99938.91;5127374;27;8968;-78
2023/01/05 02:22:07;;;;;;;;;55.75;47.00;;;;;11.59;49.74;99925.78;5070574;28;8971;-78
2023/01/05 02:25:20;;;;;;;;;41.25;32.50;;;;;11.13;52.80;99930.88;5069189;28;8852;-79
2023/01/05 02:27:59;;;;;;;;;39.25;35.25;;;;;11.17;52.08;99936.97;5011660;28;8894;-76
2023/01/05 02:31:05;;;;;;;;;50.75;42.25;;;;;11.44;51.13;99918.78;4980662;28;8872;-77
2023/01/05 02:34:06;;;;;;;;;59.25;46.00;;;;;11.55;50.49;99920.53;5012403;28;8836;-77
2023/01/05 02:36:42;;;;;;;;;53.75;45.00;;;;;11.53;50.71;99912.72;4956644;28;8917;-76
2023/01/05 02:39:15;;;;;;;;;40.75;39.50;;;;;11.49;50.54;99914.44;4956829;28;8864;-78
2023/01/05 02:41:52;;;;;;;;;46.25;39.75;;;;;11.52;50.38;99914.44;4956362;28;10045;-77
2023/01/05 02:44:22;;;;;;;;;41.50;36.50;;;;;11.52;50.85;99913.56;4956655;28;8889;-78
2023/01/05 02:47:03;;;;;;;;;50.00;41.75;;;;;11.64;49.96;99897.91;4956674;28;10030;-78
2023/01/05 02:49:36;;;;;;;;;46.75;40.50;;;;;11.55;50.14;99892.69;4956285;28;8889;-77
2023/01/05 02:52:08;;;;;;;;;39.25;37.50;;;;;11.51;50.56;99878.75;4956042;28;8854;-79
2023/01/05 02:54:44;;;;;;;;;42.75;38.50;;;;;11.44;51.85;99866.56;4957297;28;9030;-79
2023/01/05 02:57:18;;;;;;;;;35.25;33.25;;;;;11.19;52.86;99867.38;5011372;28;8892;-79
2023/01/05 02:59:54;;;;;;;;;33.25;31.75;;;;;10.88;55.19;99862.94;5028229;28;8854;-78
2023/01/05 03:02:30;;;;;;;;;31.50;27.25;;;;;10.65;56.26;99854.19;5013650;28;8850;-77
2023/01/05 03:05:05;;;;;;;;;30.25;25.75;;;;;10.50;56.90;99848.00;5048334;28;8847;-77
2023/01/05 03:07:39;;;;;;;;;32.75;29.75;;;;;10.48;57.09;99851.50;5074421;28;8869;-78
2023/01/05 03:16:00;;;;;;;;;33.50;31.50;;;;;10.62;56.52;99846.31;5088692;28;8844;-79
2023/01/05 03:19:34;;;;;;;;;30.00;29.25;;;;;10.82;56.02;99841.19;5098752;28;8941;-77
2023/01/05 03:21:25;;;;;;;;;29.00;28.75;;;;;10.91;55.72;99838.63;5107967;28;8860;-78
2023/01/05 03:35:30;;;;;;;;;38.75;31.25;;;;;10.72;55.55;99828.13;5091103;28;8978;-79
2023/01/05 03:38:06;;;;;;;;;37.25;36.00;;;;;10.51;56.67;99826.31;5090356;28;8839;-77
2023/01/05 03:40:38;;;;;;;;;38.75;36.25;;;;;10.77;55.66;99827.25;5073666;28;9639;-77
2023/01/05 03:43:08;;;;;;;;;37.50;35.00;;;;;10.51;56.34;99828.91;5073957;28;8984;-78
2023/01/05 03:45:43;;;;;;;;;24.25;22.50;;;;;10.69;56.17;99825.50;5091494;28;8874;-77
2023/01/05 03:48:19;;;;;;;;;31.50;26.75;;;;;10.77;55.96;99830.72;5074818;28;8828;-78
2023/01/05 03:50:50;;;;;;;;;28.00;27.50;;;;;10.81;55.94;99834.22;5090312;28;8858;-78
2023/01/05 03:53:21;;;;;;;;;32.25;29.50;;;;;10.89;55.59;99832.53;5090205;28;8935;-81
2023/01/05 03:55:50;;;;;;;;;22.25;21.75;;;;;10.83;55.61;99832.47;5073236;28;8864;-79
2023/01/05 03:58:20;;;;;;;;;32.00;23.75;;;;;10.88;55.79;99836.00;5073361;28;8920;-78
2023/01/05 04:00:50;;;;;;;;;25.50;21.25;;;;;10.93;55.10;99826.44;5066475;28;8960;-79
2023/01/05 04:03:22;;;;;;;;;27.75;24.25;;;;;10.71;55.77;99823.75;5049623;28;8863;-76
2023/01/05 04:06:01;;;;;;;;;35.50;29.25;;;;;10.78;55.87;99821.19;5039807;28;8855;-80
2023/01/05 04:08:32;;;;;;;;;28.00;27.60;;;;;10.84;55.70;99816.84;5052979;28;8871;-79
2023/01/05 04:11:13;;;;;;;;;30.75;29.75;;;;;11.07;55.43;99816.03;5070051;28;8864;-77
2023/01/05 04:13:44;;;;;;;;;36.25;33.00;;;;;11.01;54.76;99813.41;5069914;28;9758;-78
2023/01/05 04:16:13;;;;;;;;;35.75;30.25;;;;;11.23;54.36;99809.09;5086832;28;8839;-81
2023/01/05 04:18:43;;;;;;;;;34.40;34.00;;;;;11.28;53.84;99813.44;5086580;28;8847;-76
2023/01/05 04:21:15;;;;;;;;;29.25;26.25;;;;;11.27;54.09;99813.47;5069838;28;8855;-78
2023/01/05 04:23:44;;;;;;;;;34.00;31.75;;;;;11.32;53.34;99817.81;5070227;28;8851;-79
2023/01/05 04:26:14;;;;;;;;;32.50;29.25;;;;;11.31;53.69;99821.28;5053133;28;8964;-80
2023/01/05 04:28:44;;;;;;;;;34.50;30.50;;;;;11.47;53.20;99823.91;5052666;28;8981;-81
2023/01/05 04:31:13;;;;;;;;;32.75;29.50;;;;;11.30;53.35;99819.56;5052810;28;8826;-79
2023/01/05 04:33:44;;;;;;;;;28.75;25.00;;;;;11.47;52.64;99814.34;5045766;28;8907;-78
2023/01/05 04:36:19;;;;;;;;;36.00;34.25;;;;;11.58;52.56;99809.09;5012963;28;8854;-77
2023/01/05 04:38:49;;;;;;;;;40.00;37.00;;;;;11.57;52.04;99811.69;5006211;28;8894;-80
2023/01/05 04:41:18;;;;;;;;;71.50;56.00;;;;;11.74;51.45;99799.53;4989942;28;8840;-80
2023/01/05 04:43:51;;;;;;;;;64.00;51.00;;;;;11.87;50.71;99811.69;5007229;28;8968;-80
2023/01/05 04:46:20;;;;;;;;;50.75;41.50;;;;;11.94;50.65;99796.88;4990683;28;8934;-77
2023/01/05 04:48:51;;;;;;;;;56.50;45.50;;;;;12.03;50.47;99807.31;4990256;28;8883;-77
2023/01/05 04:51:23;;;;;;;;;51.00;44.75;;;;;12.06;50.74;99798.59;4990048;28;9022;-78
2023/01/05 04:53:52;;;;;;;;;50.75;42.00;;;;;12.04;50.42;99789.88;5022182;28;8892;-78
2023/01/05 04:56:24;;;;;;;;;41.25;37.75;;;;;11.78;50.74;99776.88;4989660;28;8926;-77
2023/01/05 04:58:53;;;;;;;;;25.75;24.75;;;;;11.40;52.14;99777.75;5021877;28;8883;-80
2023/01/05 05:01:21;;;;;;;;;28.75;27.25;;;;;11.34;52.14;99782.97;5005817;28;8910;-78
2023/01/05 05:03:55;;;;;;;;;41.50;35.00;;;;;11.27;52.79;99790.81;4976129;28;8876;-78
2023/01/05 05:06:26;;;;;;;;;33.00;30.50;;;;;11.15;53.43;99792.53;5012334;28;8870;-79
2023/01/05 05:08:57;;;;;;;;;34.00;31.00;;;;;11.28;52.50;99782.09;5046317;28;8982;-80
2023/01/05 05:11:26;;;;;;;;;41.00;34.50;;;;;11.20;53.59;99773.41;5048718;28;8899;-77
2023/01/05 05:13:55;;;;;;;;;34.75;29.50;;;;;11.29;52.94;99780.38;5048616;28;8882;-76
2023/01/05 05:16:25;;;;;;;;;29.50;24.75;;;;;11.30;52.38;99775.16;5048936;28;9037;-79
2023/01/05 05:18:54;;;;;;;;;49.00;38.25;;;;;10.93;53.60;99763.81;5048451;28;8839;-78
2023/01/05 05:21:27;;;;;;;;;32.50;29.75;;;;;10.93;53.93;99751.63;5032055;28;8871;-78
2023/01/05 05:23:56;;;;;;;;;42.50;37.50;;;;;10.84;53.76;99749.00;5026456;28;8903;-76
2023/01/05 05:26:25;;;;;;;;;33.25;29.25;;;;;10.95;53.79;99750.78;5065320;28;9499;-77
2023/01/05 05:28:57;;;;;;;;;42.75;36.25;;;;;10.89;53.79;99746.44;5063128;28;9593;-76
2023/01/05 05:31:26;;;;;;;;;34.75;33.75;;;;;10.96;52.87;99747.28;5089339;28;8886;-77
2023/01/05 05:33:55;;;;;;;;;31.00;29.50;;;;;10.99;53.29;99755.13;5090471;28;8966;-77
2023/01/05 05:36:24;;;;;;;;;29.50;28.75;;;;;11.10;53.15;99753.41;5055790;28;8848;-77
2023/01/05 05:38:55;;;;;;;;;32.75;29.25;;;;;10.83;53.73;99751.63;5088317;28;8828;-77
2023/01/05 05:41:24;;;;;;;;;38.00;30.25;;;;;10.99;53.59;99757.75;5088905;28;8883;-77
2023/01/05 05:43:53;;;;;;;;;28.50;26.75;;;;;11.03;53.11;99764.69;5090537;28;8831;-77
2023/01/05 05:46:21;;;;;;;;;31.75;27.75;;;;;11.25;52.42;99755.16;5088811;28;8866;-77
2023/01/05 05:48:50;;;;;;;;;31.00;29.00;;;;;11.28;51.88;99752.53;5072284;28;8900;-76
2023/01/05 05:51:19;;;;;;;;;34.75;30.50;;;;;11.35;52.02;99749.03;5019377;28;8872;-78
2023/01/05 05:53:48;;;;;;;;;32.25;30.25;;;;;11.29;52.41;99747.31;5052100;28;8875;-78
2023/01/05 05:56:18;;;;;;;;;40.00;36.00;;;;;11.34;51.86;99742.06;5074620;28;8901;-78
2023/01/05 05:58:47;;;;;;;;;35.75;32.75;;;;;11.17;51.90;99749.94;5076030;28;8835;-78
2023/01/05 06:01:16;;;;;;;;;33.00;29.25;;;;;11.12;52.41;99743.84;5076121;28;8880;-75
2023/01/05 06:03:45;;;;;;;;;35.00;31.50;;;;;11.11;51.80;99744.69;5093179;28;9651;-78
2023/01/05 06:06:13;;;;;;;;;33.50;30.75;;;;;11.20;51.92;99731.66;5092186;28;8840;-79
2023/01/05 06:08:42;;;;;;;;;27.00;26.25;;;;;11.26;51.25;99733.38;5092672;28;8864;-79
2023/01/05 06:11:11;;;;;;;;;36.25;33.00;;;;;10.91;52.60;99722.06;5092750;28;8909;-78
2023/01/05 06:13:41;;;;;;;;;27.75;26.00;;;;;10.80;52.95;99709.91;5094241;28;8878;-79
2023/01/05 06:16:10;;;;;;;;;37.50;35.00;;;;;10.85;52.74;99701.19;5077370;28;9574;-77
2023/01/05 06:18:39;;;;;;;;;32.00;28.75;;;;;10.88;52.93;99708.16;5076527;28;8924;-78
2023/01/05 06:21:08;;;;;;;;;29.25;26.25;;;;;10.86;52.85;99717.72;5076139;28;8859;-78
2023/01/05 06:23:36;;;;;;;;;33.00;31.50;;;;;11.04;52.58;99711.63;5109964;28;8852;-78
2023/01/05 06:26:05;;;;;;;;;28.25;28.25;;;;;11.06;52.38;99709.91;5112181;28;8861;-78
2023/01/05 06:28:34;;;;;;;;;35.75;30.00;;;;;11.17;51.82;99702.06;5127107;27;8942;-78
2023/01/05 06:31:04;;;;;;;;;27.00;24.80;;;;;11.25;51.84;99709.03;5111176;28;8857;-78
2023/01/05 06:33:33;;;;;;;;;30.75;28.50;;;;;11.17;51.92;99694.22;5110390;28;8861;-78
2023/01/05 06:36:02;;;;;;;;;41.25;37.25;;;;;11.08;52.52;99692.50;5111072;28;8836;-79
2023/01/05 06:38:31;;;;;;;;;35.00;28.50;;;;;11.34;51.60;99692.47;5111532;28;8849;-77
2023/01/05 06:40:59;;;;;;;;;30.00;27.00;;;;;11.57;50.63;99696.78;5093373;28;8860;-80
2023/01/05 06:43:28;;;;;;;;;26.75;25.75;;;;;11.60;50.19;99695.03;5092892;28;8909;-80
2023/01/05 06:45:57;;;;;;;;;30.75;29.50;;;;;11.73;50.34;99689.78;5114574;27;8843;-76
2023/01/05 06:48:28;;;;;;;;;26.50;26.00;;;;;11.88;49.92;99689.75;5130175;27;8914;-78
2023/01/05 06:50:56;;;;;;;;;32.00;30.25;;;;;11.74;50.13;99692.41;5130589;27;8858;-79
2023/01/05 06:53:25;;;;;;;;;33.50;31.25;;;;;11.74;50.50;99686.28;5112962;27;8842;-77
2023/01/05 06:55:54;;;;;;;;;36.00;33.25;;;;;11.75;50.19;99688.03;5111833;27;8925;-78
2023/01/05 06:58:23;;;;;;;;;32.50;30.00;;;;;11.98;49.67;99688.84;5131730;27;8962;-79
2023/01/05 07:00:53;;;;;;;;;36.50;32.50;;;;;12.04;49.30;99687.97;5113769;27;8846;-78
2023/01/05 07:03:23;;;;;;;;;32.75;30.75;;;;;12.26;49.36;99681.75;5147784;27;8846;-79
2023/01/05 07:05:53;;;;;;;;;30.00;27.00;;;;;12.13;48.58;99685.31;5132915;27;8950;-79
2023/01/05 07:08:22;;;;;;;;;26.75;25.50;;;;;11.90;49.34;99678.44;5130189;27;8838;-79
2023/01/05 07:10:51;;;;;;;;;32.75;28.75;;;;;12.10;48.86;99680.13;5147377;27;8981;-78
2023/01/05 07:13:20;;;;;;;;;29.50;29.25;;;;;12.31;48.47;99666.06;5078499;27;8830;-79
2023/01/05 07:15:49;;;;;;;;;35.25;31.00;;;;;12.40;47.83;99670.34;5130322;27;8889;-78
2023/01/05 07:18:17;;;;;;;;;27.75;27.75;;;;;12.50;47.73;99674.66;5132828;27;8850;-78
2023/01/05 07:20:46;;;;;;;;;31.75;28.25;;;;;12.54;47.63;99679.00;5130892;27;8881;-77
2023/01/05 07:23:16;;;;;;;;;42.25;33.00;;;;;12.74;47.25;99691.06;5113042;27;8892;-80
2023/01/05 07:25:45;;;;;;;;;28.50;25.75;;;;;12.89;47.43;99685.69;5147455;27;8850;-79
2023/01/05 07:28:14;;;;;;;;;33.75;29.75;;;;;13.01;46.56;99677.78;5113682;27;8846;-78
2023/01/05 07:30:42;;;;;;;;;33.25;30.50;;;;;12.92;46.44;99677.84;5132960;27;8883;-78
2023/01/05 07:33:11;;;;;;;;;31.00;30.00;;;;;13.18;45.99;99697.72;5132894;27;8851;-79
2023/01/05 07:35:40;;;;;;;;;37.50;34.75;;;;;13.39;46.24;99707.16;5140986;27;8875;-76
2023/01/05 07:38:09;;;;;;;;;37.75;34.75;;;;;13.17;46.12;99698.56;5112186;27;8837;-78
2023/01/05 07:40:39;;;;;;;;;35.00;30.50;;;;;13.40;45.66;99693.16;5095279;27;8846;-77
2023/01/05 07:43:08;;;;;;;;;36.75;34.50;;;;;13.03;45.67;99690.84;5112104;27;8841;-77
2023/01/05 07:45:36;;;;;;;;;46.00;39.50;;;;;13.22;46.09;99705.50;5133079;27;8914;-78
2023/01/05 07:48:06;;;;;;;;;41.25;36.50;;;;;13.04;46.12;99705.66;5149818;27;9569;-76
2023/01/05 07:50:34;;;;;;;;;43.25;38.75;;;;;13.40;45.71;99691.44;5115445;27;9588;-79
2023/01/05 07:53:03;;;;;;;;;41.00;37.25;;;;;13.15;46.08;99688.09;5132913;27;8843;-79
2023/01/05 07:55:32;;;;;;;;;45.50;39.00;;;;;13.05;46.33;99683.84;5132942;27;8957;-78
2023/01/05 07:58:02;;;;;;;;;46.25;39.75;;;;;13.32;45.70;99687.13;5133492;27;8853;-79
2023/01/05 08:00:31;;;;;;;;;47.25;38.25;;;;;13.20;45.67;99683.72;5061457;27;8961;-77
2023/01/05 08:03:00;;;;;;;;;44.75;39.75;;;;;13.50;45.48;99679.09;5112298;27;8864;-79
2023/01/05 08:05:33;;;;;;;;;40.50;37.00;;;;;13.43;45.22;99673.03;5129241;27;8937;-80
2023/01/05 08:08:02;;;;;;;;;37.50;33.50;;;;;13.31;45.57;99673.19;5128587;27;8888;-79
2023/01/05 08:10:31;;;;;;;;;38.33;35.00;;;;;13.15;45.78;99682.00;5094564;27;8837;-81
2023/01/05 08:15:50;;;;;;;;;31.25;26.75;;;;;13.74;45.19;99687.56;5066122;28;8895;-78
2023/01/05 08:18:20;;;;;;;;;37.25;33.25;;;;;13.89;44.49;99682.16;5049581;28;8851;-78
2023/01/05 08:20:53;;;;;;;;;37.25;32.50;;;;;13.97;44.37;99675.06;5066141;28;9045;-77
2023/01/05 08:23:22;;;;;;;;;33.75;31.25;;;;;14.06;43.97;99676.69;5065714;28;8859;-78
2023/01/05 08:25:54;;;;;;;;;40.50;35.25;;;;;14.08;44.03;99674.06;5066049;28;8968;-79
2023/01/05 08:28:25;;;;;;;;;38.75;35.75;;;;;14.24;43.47;99684.31;5049280;28;9699;-79
2023/01/05 08:31:04;;;;;;;;;34.25;33.25;;;;;14.24;43.61;99675.59;5049607;28;8952;-79
2023/01/05 08:33:33;;;;;;;;;41.00;38.00;;;;;14.39;43.41;99669.28;5033046;28;8863;-80
2023/01/05 08:36:07;;;;;;;;;41.25;37.50;;;;;14.44;43.19;99667.44;5049177;28;8863;-80
2023/01/05 08:38:36;;;;;;;;;43.50;38.00;;;;;14.52;42.92;99667.34;5065450;28;8851;-78
2023/01/05 08:41:05;;;;;;;;;53.25;43.00;;;;;14.37;43.18;99671.91;5059011;28;9600;-77
2023/01/05 08:43:35;;;;;;;;;53.75;42.25;;;;;14.63;43.22;99665.47;5063075;27;8922;-79
2023/01/05 08:46:04;;;;;;;;;48.75;42.25;;;;;14.74;43.10;99668.75;5111360;27;8860;-78
2023/01/05 08:48:33;;;;;;;;;48.50;39.25;;;;;14.93;42.73;99671.09;5128404;27;8837;-80
2023/01/05 08:51:05;;;;;;;;;40.75;37.50;;;;;15.15;42.63;99672.47;5131482;27;8880;-77
2023/01/05 08:53:34;;;;;;;;;41.50;37.75;;;;;15.28;42.02;99664.41;5096690;27;8828;-78
2023/01/05 08:56:03;;;;;;;;;46.25;40.50;;;;;15.42;41.97;99672.03;5148871;27;8855;-79
2023/01/05 08:58:32;;;;;;;;;47.75;42.25;;;;;15.52;41.45;99670.94;5149920;27;8847;-78
2023/01/05 09:01:06;;;;;;;;;48.25;39.25;;;;;15.42;40.34;99683.41;5131302;27;8857;-79
2023/01/05 09:03:36;;;;;;;;;46.25;40.50;;;;;15.59;41.00;99681.34;5136040;27;8830;-80
2023/01/05 09:06:08;;;;;;;;;38.50;33.75;;;;;15.38;40.22;99686.97;5133751;27;8836;-79
2023/01/05 09:08:37;;;;;;;;;66.25;53.25;;;;;15.56;41.31;99694.53;5131389;27;8831;-77
2023/01/05 09:11:07;;;;;;;;;76.33;60.67;;;;;15.78;42.15;99683.63;5131190;27;8869;-80
2023/01/05 09:13:37;;;;;;;;;46.75;37.75;;;;;15.46;40.46;99682.44;5068192;28;9387;-78
2023/01/05 09:16:09;;;;;;;;;54.25;45.00;;;;;15.81;41.07;99670.44;5068453;28;9031;-79
2023/01/05 09:18:41;;;;;;;;;52.75;44.25;;;;;15.96;40.80;99659.59;5037679;28;8842;-78
2023/01/05 09:21:10;;;;;;;;;59.75;48.50;;;;;16.16;40.91;99653.94;5089666;28;8862;-81
2023/01/05 09:23:40;;;;;;;;;70.00;55.67;;;;;16.27;41.21;99644.91;5072862;28;8876;-79
2023/01/05 09:26:10;;;;;;;;;77.33;61.00;;;;;16.43;41.33;99646.31;5089583;28;9093;-78
2023/01/05 09:28:39;;;;;;;;;70.67;56.33;;;;;16.59;41.05;99648.59;5049122;28;9519;-79
2023/01/05 09:31:12;;;;;;;;;78.33;60.00;;;;;16.75;41.21;99639.44;5049193;28;9096;-77
2023/01/05 09:33:42;;;;;;;;;46.00;40.25;;;;;16.57;39.52;99638.94;5032641;28;9244;-79
2023/01/05 09:36:11;;;;;;;;;48.75;40.25;;;;;16.78;40.03;99639.34;5032978;28;8877;-77
2023/01/05 09:38:40;;;;;;;;;38.50;34.75;;;;;16.80;39.26;99639.31;5049277;28;8834;-79
2023/01/05 09:41:21;;;;;;;;;41.25;36.50;;;;;16.98;39.73;99630.13;5032297;28;9697;-79
2023/01/05 09:43:55;;;;;;;;;41.50;37.50;;;;;17.09;39.30;99630.72;5016126;28;8923;-77
2023/01/05 09:46:31;;;;;;;;;45.00;37.50;;;;;17.03;38.92;99629.09;5032050;28;8862;-78
2023/01/05 09:49:04;;;;;;;;;40.25;37.25;;;;;17.13;38.56;99622.69;5032345;28;9634;-80
2023/01/05 09:51:34;;;;;;;;;42.25;36.75;;;;;16.75;39.02;99623.63;5044077;28;8844;-78
2023/01/05 09:54:04;;;;;;;;;37.50;34.75;;;;;17.01;38.24;99622.13;5035545;28;8824;-80
2023/01/05 09:56:39;;;;;;;;;37.00;34.50;;;;;17.22;38.18;99616.31;5035575;28;9014;-78
2023/01/05 09:59:32;;;;;;;;;47.25;37.25;;;;;16.47;38.61;99623.41;5094836;27;9400;-80
2023/01/05 10:02:10;;;;;;;;;43.25;39.25;;;;;16.54;39.13;99615.34;5117514;27;8923;-80
2023/01/05 10:04:40;;;;;;;;;33.75;31.50;;;;;16.89;38.39;99616.25;5134636;27;8835;-80
2023/01/05 10:07:19;;;;;;;;;35.50;33.75;;;;;17.25;38.76;99610.09;5151735;27;8870;-79
2023/01/05 10:09:48;;;;;;;;;36.80;31.40;;;;;17.34;37.37;99602.78;5117206;27;8827;-81
2023/01/05 10:15:13;;;;;;;;;21.80;19.20;;;;;17.82;35.53;99593.50;5134936;27;8866;-80
2023/01/05 10:17:44;;;;;;;;;21.80;21.80;;;;;18.01;34.99;99583.31;5132122;27;8865;-79
2023/01/05 10:20:18;;;;;;;;;24.80;22.40;;;;;18.23;35.44;99570.31;5131546;27;9582;-81
2023/01/05 10:22:56;;;;;;;;;25.80;25.20;;;;;18.30;35.11;99563.94;5114559;27;8861;-78
2023/01/05 10:25:33;;;;;;;;;24.20;23.60;;;;;18.49;34.74;99560.72;5114039;27;8887;-79
2023/01/05 10:28:23;;;;;;;;;20.60;20.60;;;;;18.78;34.46;99553.59;5132308;27;8984;-79
2023/01/05 10:30:58;;;;;;;;;21.20;21.20;;;;;18.90;34.10;99561.09;5113651;27;8845;-80
2023/01/05 10:33:46;;;;;;;;;25.20;24.20;;;;;18.78;33.46;99564.16;5113442;27;8976;-79
2023/01/05 10:36:34;;;;;;;;;23.40;22.60;;;;;18.94;33.24;99557.47;5132005;27;8871;-79
2023/01/05 10:39:34;;;;;;;;;23.40;22.40;;;;;18.99;33.88;99558.16;5131520;27;8841;-80
2023/01/05 10:42:12;;;;;;;;;32.40;29.80;;;;;19.05;33.70;99550.03;5131921;27;8829;-80
2023/01/05 10:44:52;;;;;;;;;28.60;27.40;;;;;18.98;33.10;99555.56;5096259;27;8863;-78
2023/01/05 10:47:22;;;;;;;;;29.20;24.00;;;;;19.05;33.99;99565.88;5149851;27;8914;-80
2023/01/05 10:49:53;;;;;;;;;25.80;25.20;;;;;19.15;33.79;99566.41;5136007;27;8897;-81
2023/01/05 10:52:23;;;;;;;;;32.25;30.75;;;;;19.20;33.75;99560.97;5099231;27;8855;-78
2023/01/05 10:54:56;;;;;;;;;39.00;32.50;;;;;18.98;33.11;99563.47;5134468;27;8839;-78
2023/01/05 10:57:35;;;;;;;;;41.75;35.50;;;;;17.68;35.14;99574.63;5150258;27;8846;-79
2023/01/05 11:00:12;;;;;;;;;15.25;14.00;;;;;18.21;35.19;99563.38;5070969;28;8841;-80
2023/01/05 11:02:46;;;;;;;;;29.00;25.60;;;;;18.17;34.14;99562.59;5088163;28;8857;-80
2023/01/05 11:05:27;;;;;;;;;20.00;18.20;;;;;18.32;33.67;99550.69;5070957;28;8858;-79
2023/01/05 11:07:59;;;;;;;;;16.60;13.80;;;;;18.25;33.19;99541.25;5054510;28;8849;-79
2023/01/05 11:10:31;;;;;;;;;13.20;13.00;;;;;18.44;32.82;99539.72;5070544;28;8842;-80
2023/01/05 11:13:07;;;;;;;;;9.00;9.00;;;;;18.00;33.05;99533.25;5070518;28;8896;-78
2023/01/05 11:15:42;;;;;;;;;21.40;19.40;;;;;18.24;33.33;99534.22;5097823;28;9755;-77
2023/01/05 11:18:26;;;;;;;;;19.80;19.00;;;;;18.48;33.36;99537.84;5107461;28;8843;-79
2023/01/05 11:21:14;;;;;;;;;23.80;20.40;;;;;18.31;32.86;99539.25;5090471;28;8847;-80
2023/01/05 11:23:45;;;;;;;;;22.80;20.60;;;;;18.43;33.08;99529.19;5109202;28;8938;-81
2023/01/05 11:26:47;;;;;;;;;26.40;22.00;;;;;18.28;33.42;99530.59;5090914;28;9710;-81
2023/01/05 11:29:17;;;;;;;;;26.00;24.80;;;;;18.46;33.43;99531.75;5090143;28;8848;-80
2023/01/05 11:31:50;;;;;;;;;24.00;23.00;;;;;18.64;33.44;99527.66;5102142;28;8861;-81
2023/01/05 11:34:30;;;;;;;;;25.80;24.20;;;;;18.63;33.08;99523.25;5125804;27;8880;-81
2023/01/05 11:37:02;;;;;;;;;29.20;28.20;;;;;17.66;34.65;99518.41;5110309;28;8845;-79
2023/01/05 11:39:41;;;;;;;;;26.60;24.40;;;;;18.25;34.10;99517.47;5111093;27;8869;-80
2023/01/05 11:42:16;;;;;;;;;20.80;19.80;;;;;18.21;34.08;99510.59;5111645;27;9548;-79
2023/01/05 11:44:55;;;;;;;;;23.60;21.00;;;;;18.21;34.07;99502.66;5130471;27;8842;-79
2023/01/05 11:47:28;;;;;;;;;21.20;19.00;;;;;18.27;33.76;99505.94;5145829;27;8862;-80
2023/01/05 11:50:05;;;;;;;;;21.80;19.40;;;;;18.24;33.61;99492.88;5112227;27;8936;-80
2023/01/05 11:52:40;;;;;;;;;17.60;17.60;;;;;18.27;33.75;99490.09;5124031;27;8837;-78
2023/01/05 11:55:34;;;;;;;;;18.40;17.00;;;;;17.76;33.91;99492.63;5111707;28;8959;-80
2023/01/05 11:58:24;;;;;;;;;16.80;16.80;;;;;17.87;34.81;99496.69;5094321;28;8845;-79
2023/01/05 12:01:32;;;;;;;;;14.00;14.00;;;;;17.85;34.28;99497.66;5050070;28;8911;-81
2023/01/05 12:04:05;;;;;;;;;21.60;18.60;;;;;18.00;34.61;99494.53;5066478;28;8975;-80
2023/01/05 12:07:02;;;;;;;;;15.40;14.40;;;;;16.79;35.32;99496.22;5033035;28;8858;-80
2023/01/05 12:09:34;;;;;;;;;17.60;16.80;;;;;16.46;36.64;99495.31;5049726;28;8932;-79
2023/01/05 12:12:23;;;;;;;;;17.20;14.60;;;;;17.14;36.29;99474.22;5033255;28;8855;-81
2023/01/05 12:15:12;;;;;;;;;14.60;14.00;;;;;17.06;35.64;99473.56;5016303;28;8886;-79
2023/01/05 12:17:51;;;;;;;;;18.00;16.00;;;;;17.25;35.39;99463.34;5049386;28;8850;-80
2023/01/05 12:20:39;;;;;;;;;20.80;19.20;;;;;17.43;35.81;99461.06;5033285;28;8850;-79
2023/01/05 12:23:34;;;;;;;;;17.80;17.00;;;;;17.50;35.39;99459.97;5049647;28;8862;-79
2023/01/05 12:26:19;;;;;;;;;21.80;16.40;;;;;17.78;34.99;99453.88;5049243;28;8886;-79